Terminal Aerodrome Forecast
Issued by NWS

Home | Current Version | Previous Version | Text Only | Print | Product List | Glossary On
Versions: 1 2 3 4 5 6 7 8 9 10 11 12 13 14 15 16 17 18 19 20 21 22
000
FTUS45 KRIW 292300
TAFJAC
TAF
KJAC 292324Z 3000/3024 21006KT P6SM VCSH SCT050 BKN100
     FM300200 VRB05KT P6SM SCT070
     FM300600 36006KT P6SM VCFG SCT004 SCT060
     FM300900 VRB05KT 1SM BR OVC006
     FM301700 VRB06KT P6SM BKN030
      AMD LTD TO CLD VIS AND WIND=

USA.gov is the U.S. government's official web portal to all federal, state and local government web resources and services.